Time;durP1;ratioP1;P1;durP2;ratioP2;P2;SDS_P1;SDS_P2;PMS_P1;PMS_P2;Temp;Humidity;BMP_temperature;BMP_pressure;BME280_temperature;BME280_humidity;BME280_pressure;Samples;Min_cycle;Max_cycle;Signal;HPM_P1;HPM_P2
2023/09/23 00:00:34;;;;;;;18.48;16.00;;;15.50;72.70;;;;;;4992075;28;20665;-44
2023/09/23 00:03:01;;;;;;;13.15;11.85;;;15.40;72.90;;;;;;4986220;28;20089;-46
2023/09/23 00:05:33;;;;;;;10.60;9.50;;;15.40;73.00;;;;;;4987631;28;20133;-50
2023/09/23 00:08:03;;;;;;;12.57;8.85;;;15.40;73.10;;;;;;4984640;28;20142;-49
2023/09/23 00:10:29;;;;;;;10.40;9.30;;;15.40;73.40;;;;;;4991900;28;20066;-45
2023/09/23 00:13:00;;;;;;;8.68;7.22;;;15.40;73.80;;;;;;4991463;28;20042;-46
2023/09/23 00:15:34;;;;;;;7.53;6.65;;;15.40;73.80;;;;;;4987700;28;20086;-48
2023/09/23 00:18:04;;;;;;;7.07;5.82;;;15.40;73.80;;;;;;4987373;28;20073;-49
2023/09/23 00:20:32;;;;;;;6.65;6.05;;;15.40;73.80;;;;;;4991764;28;20073;-49
2023/09/23 00:23:05;;;;;;;6.65;6.00;;;15.40;74.00;;;;;;4990962;28;20038;-47
2023/09/23 00:25:34;;;;;;;7.03;5.03;;;15.40;74.20;;;;;;4991634;28;20042;-46
2023/09/23 00:28:08;;;;;;;5.25;4.75;;;15.40;74.10;;;;;;4992882;28;20047;-46
2023/09/23 00:30:36;;;;;;;5.88;4.50;;;15.40;74.20;;;;;;4990884;28;20798;-44
2023/09/23 00:33:07;;;;;;;5.55;4.55;;;15.40;74.20;;;;;;4988497;28;20041;-45
2023/09/23 00:35:41;;;;;;;4.15;3.85;;;15.40;74.50;;;;;;4987350;28;20759;-44
2023/09/23 00:38:08;;;;;;;5.45;3.80;;;15.40;74.30;;;;;;5007725;28;20385;-45
2023/09/23 00:40:38;;;;;;;4.85;4.03;;;15.40;74.40;;;;;;4973497;28;20516;-48
2023/09/23 00:43:11;;;;;;;4.85;4.00;;;15.60;74.70;;;;;;5006403;28;20097;-50
2023/09/23 00:45:48;;;;;;;6.15;3.83;;;15.40;74.50;;;;;;4985625;28;20428;-44
2023/09/23 00:48:18;;;;;;;5.55;3.53;;;15.40;74.60;;;;;;4992423;28;20039;-46
2023/09/23 00:50:46;;;;;;;4.38;3.95;;;15.30;74.00;;;;;;4990919;28;20574;-45
2023/09/23 00:53:15;;;;;;;4.68;4.28;;;15.30;74.00;;;;;;4988254;28;20544;-49
2023/09/23 00:55:52;;;;;;;4.25;3.85;;;15.30;74.10;;;;;;4973263;28;20768;-44
2023/09/23 00:58:23;;;;;;;4.78;4.32;;;15.30;74.40;;;;;;5007705;28;20145;-49
2023/09/23 01:00:51;;;;;;;4.95;4.38;;;15.20;74.60;;;;;;4986474;28;20065;-47
2023/09/23 01:03:19;;;;;;;4.05;3.58;;;15.20;74.00;;;;;;4989017;28;20496;-46
2023/09/23 01:05:58;;;;;;;4.50;4.00;;;15.20;73.90;;;;;;4975678;28;20081;-49
2023/09/23 01:08:25;;;;;;;6.18;4.20;;;15.10;73.90;;;;;;4985105;28;20579;-45
2023/09/23 01:10:52;;;;;;;5.53;4.43;;;15.10;74.10;;;;;;4971801;28;20050;-46
2023/09/23 01:13:24;;;;;;;5.20;4.10;;;15.10;74.30;;;;;;4987454;28;20101;-48
2023/09/23 01:15:52;;;;;;;5.43;4.43;;;15.00;74.40;;;;;;5005380;28;20054;-49
2023/09/23 01:18:21;;;;;;;5.43;3.88;;;15.10;74.60;;;;;;4985215;28;20038;-49
2023/09/23 01:20:55;;;;;;;5.15;4.40;;;15.10;74.50;;;;;;4986849;28;20042;-47
2023/09/23 01:23:22;;;;;;;6.18;4.15;;;15.00;74.30;;;;;;4986607;28;20047;-49
2023/09/23 01:25:49;;;;;;;6.00;4.07;;;15.10;74.60;;;;;;4988403;28;20448;-45
2023/09/23 01:28:18;;;;;;;6.60;4.90;;;15.00;74.50;;;;;;4991802;28;20035;-46
2023/09/23 01:30:45;;;;;;;5.95;4.07;;;15.00;74.70;;;;;;4972861;28;20078;-47
2023/09/23 01:33:19;;;;;;;6.50;3.88;;;15.00;74.80;;;;;;4989315;28;20069;-49
2023/09/23 01:35:50;;;;;;;4.22;3.83;;;15.00;74.90;;;;;;4987359;28;20046;-48
2023/09/23 01:38:24;;;;;;;6.20;4.45;;;15.00;74.90;;;;;;4991986;28;20039;-48
2023/09/23 01:40:56;;;;;;;6.30;3.90;;;15.00;74.90;;;;;;4971453;28;20054;-49
2023/09/23 01:43:26;;;;;;;7.63;3.65;;;15.00;74.90;;;;;;4979898;28;20038;-48
2023/09/23 01:45:58;;;;;;;4.35;3.60;;;15.00;74.90;;;;;;4989341;28;20069;-46
2023/09/23 01:48:29;;;;;;;3.42;3.05;;;14.90;74.70;;;;;;4985923;28;20041;-49
2023/09/23 01:50:58;;;;;;;3.67;3.28;;;14.90;74.80;;;;;;4987731;28;20126;-46
2023/09/23 01:53:27;;;;;;;5.20;2.88;;;14.90;74.70;;;;;;4989176;28;20141;-50
2023/09/23 01:55:56;;;;;;;3.45;3.15;;;14.90;74.60;;;;;;4985340;28;20125;-45
2023/09/23 01:58:24;;;;;;;2.97;2.60;;;14.90;74.70;;;;;;5001074;28;20066;-49
2023/09/23 02:00:53;;;;;;;3.03;2.22;;;14.90;74.50;;;;;;4971766;28;20050;-49
2023/09/23 02:03:22;;;;;;;4.22;2.67;;;14.90;74.50;;;;;;4989261;28;20046;-49
2023/09/23 02:05:52;;;;;;;3.13;2.50;;;14.90;74.70;;;;;;4970687;28;20069;-45
2023/09/23 02:08:19;;;;;;;3.80;2.35;;;14.90;74.90;;;;;;4999634;28;20496;-45
2023/09/23 02:10:48;;;;;;;3.50;2.20;;;14.90;74.70;;;;;;4988338;28;20523;-44
2023/09/23 02:13:15;;;;;;;4.25;2.17;;;14.90;74.50;;;;;;4988954;28;20039;-45
2023/09/23 02:15:51;;;;;;;4.15;1.88;;;14.90;74.40;;;;;;4986027;28;20057;-46
2023/09/23 02:18:21;;;;;;;3.42;1.67;;;14.90;74.40;;;;;;4990254;28;20053;-48
2023/09/23 02:20:50;;;;;;;3.20;2.45;;;14.90;74.30;;;;;;5001846;28;20051;-45
2023/09/23 02:23:21;;;;;;;4.18;2.05;;;14.90;74.40;;;;;;4988843;28;20637;-49
2023/09/23 02:25:50;;;;;;;4.95;1.70;;;14.80;74.30;;;;;;4986142;28;20056;-47
2023/09/23 02:28:18;;;;;;;1.70;1.60;;;14.80;74.10;;;;;;4988715;28;20061;-46
2023/09/23 02:30:44;;;;;;;1.80;1.40;;;14.80;74.00;;;;;;4987124;28;20043;-45
2023/09/23 02:33:12;;;;;;;3.17;1.58;;;14.80;74.00;;;;;;4988838;28;20066;-48
2023/09/23 02:35:39;;;;;;;3.47;1.98;;;14.80;74.00;;;;;;4988349;28;20066;-49
2023/09/23 02:38:10;;;;;;;2.53;1.63;;;14.80;74.00;;;;;;4990447;28;20516;-46
2023/09/23 02:40:40;;;;;;;3.80;2.03;;;14.80;74.10;;;;;;4989675;28;20428;-45
2023/09/23 02:43:07;;;;;;;5.88;1.63;;;14.70;74.20;;;;;;4970387;28;20046;-48
2023/09/23 02:45:35;;;;;;;3.08;1.23;;;14.70;74.00;;;;;;4982655;28;20056;-48
2023/09/23 02:48:03;;;;;;;3.05;1.20;;;14.70;73.90;;;;;;4998741;28;20046;-48
2023/09/23 02:50:32;;;;;;;1.92;1.30;;;14.70;73.90;;;;;;4989554;28;20109;-48
2023/09/23 02:52:59;;;;;;;3.10;1.60;;;14.70;74.00;;;;;;4977455;28;20053;-48
2023/09/23 02:55:29;;;;;;;2.13;1.60;;;14.70;73.90;;;;;;4968538;28;20038;-44
2023/09/23 02:57:58;;;;;;;2.22;1.08;;;14.70;74.10;;;;;;4971682;28;20054;-49
2023/09/23 03:00:30;;;;;;;5.65;1.35;;;14.60;74.10;;;;;;4971624;28;20117;-49
2023/09/23 03:02:59;;;;;;;2.95;1.23;;;14.60;74.10;;;;;;4986992;28;20113;-45
2023/09/23 03:05:30;;;;;;;1.52;1.17;;;14.60;74.20;;;;;;4985885;28;20048;-46
2023/09/23 03:08:13;;;;;;;1.17;1.08;;;14.60;74.20;;;;;;4986843;28;20052;-48
2023/09/23 03:10:44;;;;;;;3.85;1.08;;;14.60;74.50;;;;;;4987381;28;20084;-45
2023/09/23 03:13:11;;;;;;;1.95;1.33;;;14.60;74.20;;;;;;4983713;28;20065;-46
2023/09/23 03:15:46;;;;;;;3.03;1.25;;;14.50;74.20;;;;;;4988255;28;20042;-46
2023/09/23 03:18:17;;;;;;;2.65;1.20;;;14.50;74.20;;;;;;4993021;28;20046;-45
2023/09/23 03:20:44;;;;;;;1.83;0.90;;;14.50;74.20;;;;;;5005627;28;20574;-44
2023/09/23 03:23:16;;;;;;;2.42;0.90;;;14.50;74.00;;;;;;4975053;28;20289;-45
2023/09/23 03:25:44;;;;;;;1.20;0.68;;;14.50;74.10;;;;;;4992121;28;20125;-44
2023/09/23 03:28:22;;;;;;;1.02;0.82;;;14.50;74.20;;;;;;4975335;28;20145;-45
2023/09/23 03:31:01;;;;;;;2.08;1.20;;;14.50;74.20;;;;;;4988923;28;20560;-44
2023/09/23 03:33:36;;;;;;;2.10;1.10;;;14.50;74.50;;;;;;5000589;28;20042;-49
2023/09/23 03:36:05;;;;;;;3.10;1.10;;;14.40;74.20;;;;;;4986852;28;20053;-45
2023/09/23 03:38:34;;;;;;;1.77;1.08;;;14.40;74.20;;;;;;4993963;28;20138;-48
2023/09/23 03:41:02;;;;;;;4.75;1.02;;;14.40;74.20;;;;;;4976899;28;20078;-46
2023/09/23 03:43:32;;;;;;;2.38;1.15;;;14.40;74.30;;;;;;4985078;28;20050;-46
2023/09/23 03:46:01;;;;;;;3.35;0.98;;;14.40;74.40;;;;;;4991734;28;20791;-48
2023/09/23 03:48:33;;;;;;;2.55;0.75;;;14.40;74.40;;;;;;4972552;28;20050;-46
2023/09/23 03:51:05;;;;;;;2.40;1.00;;;14.40;74.50;;;;;;5007376;28;20530;-45
2023/09/23 03:53:34;;;;;;;2.00;1.10;;;14.40;74.40;;;;;;4990747;28;20089;-45
2023/09/23 03:56:03;;;;;;;7.90;1.33;;;14.40;74.40;;;;;;4988883;28;20043;-45
2023/09/23 03:58:32;;;;;;;1.98;1.30;;;14.40;74.30;;;;;;4993581;28;20050;-44
2023/09/23 04:01:06;;;;;;;6.38;1.35;;;14.40;74.40;;;;;;4990690;28;20403;-45
2023/09/23 04:03:36;;;;;;;2.40;1.05;;;14.40;74.30;;;;;;4989702;28;20066;-45
2023/09/23 04:06:05;;;;;;;3.55;1.45;;;14.40;74.30;;;;;;4987082;28;20579;-48
2023/09/23 04:08:34;;;;;;;2.08;1.10;;;14.40;74.30;;;;;;4993146;28;20126;-49
2023/09/23 04:11:05;;;;;;;2.10;1.00;;;14.30;74.20;;;;;;4991899;28;20074;-49
2023/09/23 04:13:34;;;;;;;1.88;0.98;;;14.30;74.40;;;;;;4986604;28;20046;-46
2023/09/23 04:16:01;;;;;;;3.33;1.33;;;14.40;74.40;;;;;;4981214;28;20125;-46
2023/09/23 04:18:28;;;;;;;3.25;1.02;;;14.30;74.40;;;;;;4993334;28;20062;-49
2023/09/23 04:20:57;;;;;;;1.30;1.05;;;14.30;74.50;;;;;;4991866;28;20047;-45
2023/09/23 04:23:26;;;;;;;2.17;0.95;;;14.30;74.50;;;;;;4990365;28;20452;-48
2023/09/23 04:25:56;;;;;;;3.63;1.27;;;14.30;74.60;;;;;;4989782;28;20092;-48
2023/09/23 04:28:27;;;;;;;3.08;1.13;;;14.30;74.60;;;;;;4984721;28;20579;-44
2023/09/23 04:30:55;;;;;;;3.80;1.10;;;14.30;74.70;;;;;;4991214;28;20422;-45
2023/09/23 04:33:23;;;;;;;2.53;1.15;;;14.30;74.60;;;;;;4991896;28;20376;-46
2023/09/23 04:35:51;;;;;;;2.00;1.30;;;14.30;74.70;;;;;;4990828;28;20105;-48
2023/09/23 04:38:18;;;;;;;2.78;0.90;;;14.30;74.60;;;;;;4991811;28;20086;-49
2023/09/23 04:40:50;;;;;;;4.10;1.55;;;14.30;74.70;;;;;;4991966;28;20097;-44
2023/09/23 04:43:25;;;;;;;1.58;1.10;;;14.30;74.70;;;;;;4990218;28;20117;-49
2023/09/23 04:45:53;;;;;;;;;;;14.30;74.70;;;;;;4991083;28;20089;-45
2023/09/23 04:48:26;;;;;;;4.05;1.23;;;14.30;75.00;;;;;;4987739;28;19953;-47
2023/09/23 04:50:57;;;;;;;2.42;1.48;;;14.30;74.30;;;;;;4990850;28;20411;-47
2023/09/23 04:53:28;;;;;;;2.65;1.25;;;14.20;74.30;;;;;;4990712;28;20389;-46
2023/09/23 04:55:55;;;;;;;2.25;1.23;;;14.20;74.40;;;;;;4990807;28;20508;-46
2023/09/23 04:58:22;;;;;;;2.30;1.70;;;14.20;74.50;;;;;;4984937;28;20049;-45
2023/09/23 05:00:51;;;;;;;2.47;1.35;;;14.20;74.60;;;;;;4991276;28;20428;-45
2023/09/23 05:03:19;;;;;;;3.00;1.50;;;14.20;74.70;;;;;;4989566;28;20054;-49
2023/09/23 05:05:46;;;;;;;3.78;1.55;;;14.20;74.70;;;;;;4990231;28;20085;-47
2023/09/23 05:08:14;;;;;;;2.60;1.63;;;14.10;74.70;;;;;;4991277;28;20050;-45
2023/09/23 05:10:44;;;;;;;3.53;1.90;;;14.20;74.80;;;;;;4992246;28;20141;-49
2023/09/23 05:13:17;;;;;;;3.55;1.40;;;14.10;74.80;;;;;;4990222;28;20070;-45
2023/09/23 05:15:44;;;;;;;3.92;1.45;;;14.10;75.00;;;;;;4987887;28;20050;-45
2023/09/23 05:18:17;;;;;;;4.35;1.80;;;14.20;75.00;;;;;;4991243;28;20042;-44
2023/09/23 05:20:47;;;;;;;2.65;1.45;;;14.10;74.90;;;;;;4992596;28;20050;-47
2023/09/23 05:23:17;;;;;;;3.53;1.20;;;14.10;75.00;;;;;;4989787;28;20054;-44
2023/09/23 05:25:45;;;;;;;1.88;1.27;;;14.10;74.90;;;;;;4991433;28;20393;-48
2023/09/23 05:28:11;;;;;;;3.20;1.33;;;14.10;74.90;;;;;;4990692;28;20846;-44
2023/09/23 05:30:41;;;;;;;3.85;1.70;;;14.10;75.00;;;;;;4991625;28;20049;-44
2023/09/23 05:33:08;;;;;;;2.20;1.23;;;14.10;75.10;;;;;;4988092;28;20397;-45
2023/09/23 05:35:37;;;;;;;3.03;1.67;;;14.10;75.00;;;;;;4990120;28;20074;-47
2023/09/23 05:38:09;;;;;;;3.05;1.50;;;14.10;75.10;;;;;;4990738;28;20046;-47
2023/09/23 05:40:38;;;;;;;2.67;1.20;;;14.10;75.10;;;;;;4982642;28;20058;-44
2023/09/23 05:43:11;;;;;;;2.70;1.50;;;14.10;75.30;;;;;;4989929;28;20485;-48
2023/09/23 05:45:40;;;;;;;3.78;1.17;;;14.10;75.30;;;;;;4990157;28;20118;-45
2023/09/23 05:48:07;;;;;;;3.45;1.30;;;14.10;75.20;;;;;;4988426;28;20065;-45
2023/09/23 05:50:35;;;;;;;2.13;1.40;;;14.10;75.30;;;;;;4984448;28;20065;-43
2023/09/23 05:53:01;;;;;;;4.35;1.55;;;14.10;75.30;;;;;;4989946;28;20106;-44
2023/09/23 05:55:31;;;;;;;3.58;1.40;;;14.20;75.40;;;;;;4990583;28;20074;-47
2023/09/23 05:57:57;;;;;;;6.18;1.80;;;14.10;75.30;;;;;;4989813;28;20121;-47
2023/09/23 06:00:25;;;;;;;4.30;1.67;;;14.10;75.30;;;;;;4991016;28;20066;-45
2023/09/23 06:02:52;;;;;;;3.95;1.55;;;14.20;75.40;;;;;;4989921;28;20156;-48
2023/09/23 06:05:20;;;;;;;2.88;1.45;;;14.20;75.30;;;;;;4988141;28;20050;-47
2023/09/23 06:07:46;;;;;;;2.88;1.65;;;14.20;75.30;;;;;;4990059;28;20050;-50
2023/09/23 06:10:15;;;;;;;3.60;1.88;;;14.20;75.30;;;;;;4990071;28;20057;-46
2023/09/23 06:12:41;;;;;;;2.47;1.33;;;14.30;75.50;;;;;;4989776;28;20081;-48
2023/09/23 06:15:09;;;;;;;6.38;1.45;;;14.20;75.30;;;;;;4989459;28;20066;-47
2023/09/23 06:17:37;;;;;;;3.10;1.45;;;14.20;75.30;;;;;;4988216;28;20094;-49
2023/09/23 06:20:05;;;;;;;3.33;1.30;;;14.30;75.30;;;;;;4989035;28;20061;-47
2023/09/23 06:22:34;;;;;;;3.72;1.70;;;14.30;75.30;;;;;;4982352;28;20553;-49
2023/09/23 06:25:02;;;;;;;3.08;1.60;;;14.30;75.50;;;;;;4970747;28;20042;-48
2023/09/23 06:27:29;;;;;;;2.88;1.45;;;14.20;75.40;;;;;;4983407;28;20070;-47
2023/09/23 06:29:55;;;;;;;1.83;1.27;;;14.30;75.50;;;;;;4989760;28;20129;-49
2023/09/23 06:32:22;;;;;;;3.38;1.73;;;14.30;75.50;;;;;;4986311;28;20066;-47
2023/09/23 06:34:49;;;;;;;3.58;1.75;;;14.30;75.40;;;;;;4983904;28;20035;-46
2023/09/23 06:37:15;;;;;;;5.38;1.50;;;14.40;75.50;;;;;;4990483;28;20041;-50
2023/09/23 06:39:44;;;;;;;4.95;1.60;;;14.40;75.50;;;;;;4990001;28;20045;-48
2023/09/23 06:42:11;;;;;;;3.40;1.83;;;14.40;75.60;;;;;;4989599;28;20050;-49
2023/09/23 06:44:37;;;;;;;3.45;2.10;;;14.40;75.60;;;;;;4985514;28;20420;-50
2023/09/23 06:47:04;;;;;;;2.95;1.20;;;14.40;75.50;;;;;;4984237;28;20074;-46
2023/09/23 06:49:31;;;;;;;2.50;1.50;;;14.40;76.20;;;;;;4989577;28;20057;-50
2023/09/23 06:52:00;;;;;;;3.85;1.90;;;14.50;75.60;;;;;;4981951;28;20042;-47
2023/09/23 06:54:27;;;;;;;6.20;2.00;;;14.50;75.60;;;;;;4982801;28;20125;-47
2023/09/23 06:56:57;;;;;;;2.40;1.60;;;14.50;75.60;;;;;;4981714;28;20086;-46
2023/09/23 06:59:26;;;;;;;4.80;1.83;;;14.50;75.70;;;;;;4982174;28;20125;-46
2023/09/23 07:01:53;;;;;;;3.05;1.73;;;14.60;75.80;;;;;;4988780;28;20042;-46
2023/09/23 07:04:20;;;;;;;3.50;1.70;;;14.60;75.80;;;;;;4987969;28;20042;-47
2023/09/23 07:06:48;;;;;;;6.18;1.85;;;14.60;75.80;;;;;;4969868;28;20039;-53
2023/09/23 07:09:14;;;;;;;3.75;1.55;;;14.60;75.80;;;;;;4984331;28;20047;-46
2023/09/23 07:11:41;;;;;;;3.80;1.30;;;14.70;76.00;;;;;;4989717;28;20039;-46
2023/09/23 07:14:12;;;;;;;4.25;1.88;;;14.70;76.00;;;;;;4986202;28;20042;-45
2023/09/23 07:16:39;;;;;;;2.35;1.58;;;14.70;76.00;;;;;;4989069;28;20049;-47
2023/09/23 07:19:05;;;;;;;2.30;1.60;;;14.70;76.00;;;;;;4984759;28;20105;-49
2023/09/23 07:21:32;;;;;;;3.20;1.60;;;14.80;76.20;;;;;;4983455;28;20058;-49
2023/09/23 07:24:01;;;;;;;3.10;1.73;;;14.90;76.40;;;;;;4984281;28;20434;-46
2023/09/23 07:26:31;;;;;;;4.70;2.40;;;14.90;76.40;;;;;;4984439;28;20043;-48
2023/09/23 07:28:58;;;;;;;3.15;1.40;;;15.00;76.40;;;;;;4989624;28;20038;-49
2023/09/23 07:31:25;;;;;;;4.53;1.63;;;15.10;76.60;;;;;;4988325;28;20050;-45
2023/09/23 07:33:52;;;;;;;2.88;1.65;;;15.20;76.80;;;;;;4987142;28;20043;-48
2023/09/23 07:36:19;;;;;;;3.08;2.08;;;15.20;76.70;;;;;;4989331;28;20034;-48
2023/09/23 07:38:51;;;;;;;4.82;2.28;;;15.30;76.50;;;;;;4985318;28;20066;-47
2023/09/23 07:41:19;;;;;;;4.72;2.33;;;15.40;76.70;;;;;;4989005;28;20540;-49
2023/09/23 07:43:48;;;;;;;3.40;1.70;;;15.50;76.60;;;;;;4983267;28;20045;-49
2023/09/23 07:46:15;;;;;;;2.67;1.33;;;15.60;76.40;;;;;;4984706;28;20050;-48
2023/09/23 07:48:52;;;;;;;2.15;1.98;;;15.70;76.30;;;;;;4985631;28;20448;-50
2023/09/23 07:51:22;;;;;;;2.70;1.60;;;15.80;75.90;;;;;;4987172;28;20053;-49
2023/09/23 07:53:52;;;;;;;3.63;1.63;;;15.90;75.50;;;;;;4995271;28;20042;-46
2023/09/23 07:56:18;;;;;;;4.40;1.90;;;16.00;75.40;;;;;;4987484;28;20042;-47
2023/09/23 07:58:45;;;;;;;10.98;2.75;;;16.10;75.20;;;;;;4987574;28;20034;-49
2023/09/23 08:01:18;;;;;;;3.13;1.92;;;16.20;75.00;;;;;;4987666;28;20109;-49
2023/09/23 08:03:47;;;;;;;2.22;1.75;;;16.20;74.40;;;;;;4989498;28;20105;-46
2023/09/23 08:06:14;;;;;;;4.40;1.95;;;16.30;74.40;;;;;;4992487;28;20118;-49
2023/09/23 08:08:41;;;;;;;2.85;2.47;;;16.30;74.10;;;;;;4993176;28;20382;-46
2023/09/23 08:11:10;;;;;;;3.70;2.17;;;16.40;74.20;;;;;;4992538;28;20113;-50
2023/09/23 08:13:41;;;;;;;3.25;2.42;;;16.40;73.90;;;;;;5004426;28;20039;-48
2023/09/23 08:16:10;;;;;;;2.38;1.92;;;16.40;74.00;;;;;;4992180;28;20116;-49
2023/09/23 08:18:37;;;;;;;3.28;2.10;;;16.40;73.80;;;;;;4991782;28;20042;-47
2023/09/23 08:21:06;;;;;;;3.72;1.95;;;16.50;73.70;;;;;;4991295;28;20117;-50
2023/09/23 08:23:35;;;;;;;4.93;1.80;;;16.50;73.70;;;;;;4986406;28;20101;-50
2023/09/23 08:26:04;;;;;;;5.35;1.98;;;16.60;73.60;;;;;;4992336;28;20053;-46
2023/09/23 08:28:35;;;;;;;4.07;2.10;;;16.70;73.50;;;;;;4993548;28;20040;-49
2023/09/23 08:31:01;;;;;;;2.15;1.90;;;16.70;73.30;;;;;;4982370;28;20120;-46
2023/09/23 08:33:28;;;;;;;2.78;1.73;;;16.80;73.20;;;;;;4989882;28;20049;-48
2023/09/23 08:35:55;;;;;;;5.88;2.47;;;16.80;72.80;;;;;;4991678;28;20049;-47
2023/09/23 08:38:23;;;;;;;4.90;1.88;;;16.90;73.10;;;;;;4989015;28;20046;-50
2023/09/23 08:40:54;;;;;;;2.10;1.85;;;17.00;73.30;;;;;;4991878;28;20047;-48
2023/09/23 08:43:36;;;;;;;3.72;2.20;;;17.10;73.00;;;;;;4991000;28;20069;-47
2023/09/23 08:46:05;;;;;;;5.10;2.30;;;17.20;72.80;;;;;;4987467;28;20039;-49
2023/09/23 08:48:34;;;;;;;2.28;1.90;;;17.30;72.50;;;;;;4990883;28;20051;-48
2023/09/23 08:51:03;;;;;;;3.13;1.80;;;17.40;72.40;;;;;;4987585;28;20113;-47
2023/09/23 08:53:34;;;;;;;2.85;1.88;;;17.50;71.90;;;;;;4984994;28;20170;-50
2023/09/23 08:56:00;;;;;;;2.65;1.70;;;17.60;71.80;;;;;;4984915;28;20042;-47
2023/09/23 08:58:27;;;;;;;4.72;2.10;;;17.70;71.80;;;;;;4991089;28;20093;-46
2023/09/23 09:00:55;;;;;;;2.42;1.70;;;17.70;71.30;;;;;;4986220;28;20126;-46
2023/09/23 09:03:26;;;;;;;4.63;3.13;;;17.80;70.90;;;;;;4990899;28;20398;-50
2023/09/23 09:05:53;;;;;;;3.22;1.83;;;17.90;71.00;;;;;;4991168;28;20464;-46
2023/09/23 09:08:20;;;;;;;2.70;1.92;;;17.90;70.70;;;;;;4993029;28;20042;-51
2023/09/23 09:10:47;;;;;;;3.67;1.55;;;18.00;70.00;;;;;;4989500;28;20444;-48
2023/09/23 09:13:17;;;;;;;3.20;2.08;;;18.10;69.60;;;;;;4989320;28;20594;-51
2023/09/23 09:15:44;;;;;;;3.83;1.55;;;18.10;69.20;;;;;;4991587;28;20444;-50
2023/09/23 09:18:11;;;;;;;5.55;2.50;;;18.10;69.30;;;;;;4992829;28;20034;-50
2023/09/23 09:20:38;;;;;;;2.85;2.13;;;18.20;69.60;;;;;;4989238;28;20082;-46
2023/09/23 09:23:05;;;;;;;3.10;1.63;;;18.20;69.50;;;;;;4985160;28;20606;-48
2023/09/23 09:25:32;;;;;;;4.20;2.00;;;18.30;69.30;;;;;;4986185;28;20050;-45
2023/09/23 09:28:06;;;;;;;2.15;1.60;;;18.40;69.00;;;;;;4991608;28;20556;-48
2023/09/23 09:30:37;;;;;;;4.35;1.73;;;18.40;68.40;;;;;;4988291;28;20527;-46
2023/09/23 09:33:07;;;;;;;4.15;2.35;;;18.50;68.20;;;;;;4989108;28;20038;-46
2023/09/23 09:35:35;;;;;;;4.72;1.80;;;18.50;67.20;;;;;;4988779;28;20266;-45
2023/09/23 09:38:08;;;;;;;3.22;1.98;;;18.50;67.10;;;;;;4983298;28;20485;-47
2023/09/23 09:40:45;;;;;;;2.83;1.53;;;18.60;66.70;;;;;;4990701;28;20050;-49
2023/09/23 09:43:13;;;;;;;2.38;1.73;;;18.60;66.50;;;;;;4972312;28;20051;-48
2023/09/23 09:45:42;;;;;;;6.05;2.40;;;18.60;66.30;;;;;;4989442;28;20046;-47
2023/09/23 09:48:12;;;;;;;6.05;2.58;;;18.50;66.00;;;;;;4990687;28;20117;-48
2023/09/23 09:50:39;;;;;;;4.00;1.55;;;18.50;66.30;;;;;;4989777;28;20062;-47
2023/09/23 09:53:06;;;;;;;2.97;2.22;;;18.50;66.20;;;;;;4990284;28;20042;-46
2023/09/23 09:55:33;;;;;;;1.77;1.42;;;18.50;66.00;;;;;;4989891;28;20405;-48
2023/09/23 09:58:01;;;;;;;2.72;1.33;;;18.50;66.60;;;;;;4992030;28;20035;-46
2023/09/23 10:00:40;;;;;;;5.50;1.65;;;18.50;66.30;;;;;;4990677;28;20050;-46
2023/09/23 10:03:11;;;;;;;3.65;1.27;;;18.50;65.80;;;;;;4988341;28;20113;-50
2023/09/23 10:05:46;;;;;;;1.70;1.20;;;18.50;65.90;;;;;;4986095;28;20046;-47
2023/09/23 10:08:18;;;;;;;4.40;2.15;;;18.60;65.70;;;;;;4988470;28;20073;-49
2023/09/23 10:10:48;;;;;;;2.63;1.30;;;18.60;65.90;;;;;;4990519;28;20390;-50
2023/09/23 10:13:22;;;;;;;5.45;3.28;;;18.60;65.70;;;;;;4989831;28;20302;-47
2023/09/23 10:15:49;;;;;;;1.35;1.08;;;18.60;64.70;;;;;;4989942;28;20136;-47
2023/09/23 10:18:19;;;;;;;1.98;1.02;;;18.60;64.90;;;;;;4991575;28;20059;-48
2023/09/23 10:20:56;;;;;;;3.75;1.50;;;18.60;64.30;;;;;;4989479;28;20125;-47
2023/09/23 10:23:22;;;;;;;2.38;1.23;;;18.60;64.20;;;;;;4986661;28;20035;-47
2023/09/23 10:25:51;;;;;;;3.28;1.30;;;18.60;64.90;;;;;;4986627;28;20057;-50
2023/09/23 10:28:23;;;;;;;1.20;1.10;;;18.60;64.90;;;;;;4991066;28;20134;-47
2023/09/23 10:31:26;;;;;;;2.60;1.08;;;18.60;65.20;;;;;;4988532;28;20054;-48
2023/09/23 10:33:55;;;;;;;3.17;1.50;;;18.60;65.10;;;;;;4987721;28;20054;-49
2023/09/23 10:36:23;;;;;;;3.17;1.35;;;18.70;65.10;;;;;;4989388;28;20061;-50
2023/09/23 10:38:53;;;;;;;1.70;1.27;;;18.70;65.10;;;;;;4988921;28;20046;-51
2023/09/23 10:41:32;;;;;;;4.15;1.27;;;18.70;64.40;;;;;;4990078;28;20795;-47
2023/09/23 10:43:59;;;;;;;2.78;1.48;;;18.70;64.20;;;;;;4989852;28;20042;-46
2023/09/23 10:46:26;;;;;;;1.48;1.02;;;18.70;64.30;;;;;;4990503;28;20106;-47
2023/09/23 10:48:52;;;;;;;3.05;1.40;;;18.80;64.00;;;;;;4990468;28;20070;-47
2023/09/23 10:51:22;;;;;;;3.25;1.40;;;18.80;64.00;;;;;;4989972;28;20125;-48
2023/09/23 10:53:51;;;;;;;2.60;1.23;;;18.90;64.60;;;;;;4988854;28;20035;-48
2023/09/23 10:56:27;;;;;;;2.22;1.40;;;19.00;64.00;;;;;;4988843;28;20977;-49
2023/09/23 10:58:55;;;;;;;4.03;1.50;;;19.20;63.80;;;;;;4990359;28;20049;-47
2023/09/23 11:01:22;;;;;;;2.83;1.20;;;19.20;64.00;;;;;;4989430;28;20034;-51
2023/09/23 11:03:49;;;;;;;1.23;1.13;;;19.30;63.40;;;;;;4987066;28;20066;-51
2023/09/23 11:06:17;;;;;;;2.20;1.20;;;19.40;63.40;;;;;;4989585;28;20046;-48
2023/09/23 11:08:44;;;;;;;1.90;1.17;;;19.50;62.80;;;;;;5005966;28;20500;-46
2023/09/23 11:11:13;;;;;;;2.60;1.25;;;19.60;62.60;;;;;;4989506;28;20120;-46
2023/09/23 11:13:40;;;;;;;2.17;1.15;;;19.70;62.40;;;;;;4987875;28;20056;-47
2023/09/23 11:16:09;;;;;;;2.60;1.27;;;19.70;62.30;;;;;;4987613;28;20038;-46
2023/09/23 11:18:37;;;;;;;3.28;1.10;;;19.80;62.00;;;;;;4990369;28;20042;-50
2023/09/23 11:21:06;;;;;;;2.08;0.90;;;19.90;62.20;;;;;;4989290;28;20055;-49
2023/09/23 11:23:34;;;;;;;1.88;1.13;;;19.90;61.80;;;;;;4986304;28;20113;-51
2023/09/23 11:26:02;;;;;;;3.30;1.00;;;19.90;61.30;;;;;;4987953;28;21547;-49
2023/09/23 11:28:28;;;;;;;1.88;1.08;;;20.00;61.10;;;;;;4987669;28;20042;-46
2023/09/23 11:30:56;;;;;;;2.38;1.08;;;20.00;60.80;;;;;;4986577;28;20076;-48
2023/09/23 11:33:24;;;;;;;2.65;1.00;;;20.00;60.70;;;;;;4985880;28;20479;-46
2023/09/23 11:35:54;;;;;;;4.28;1.20;;;20.00;61.30;;;;;;4986469;28;20069;-48
2023/09/23 11:38:21;;;;;;;2.40;1.50;;;20.10;62.40;;;;;;4992470;28;20049;-47
2023/09/23 11:40:48;;;;;;;3.60;1.40;;;20.20;61.60;;;;;;4992454;28;20526;-49
2023/09/23 11:43:15;;;;;;;4.18;1.60;;;20.30;61.60;;;;;;4991100;28;20137;-49
2023/09/23 11:45:42;;;;;;;1.75;1.17;;;20.40;61.10;;;;;;4992688;28;20042;-46
2023/09/23 11:48:09;;;;;;;2.22;1.13;;;20.50;60.40;;;;;;4989714;28;20046;-48
2023/09/23 11:50:37;;;;;;;3.63;1.50;;;20.50;60.00;;;;;;4986334;28;20109;-43
2023/09/23 11:53:04;;;;;;;2.05;1.02;;;20.50;60.20;;;;;;4990234;28;20463;-44
2023/09/23 11:55:32;;;;;;;5.65;1.30;;;20.50;59.40;;;;;;4990523;28;20496;-44
2023/09/23 11:58:00;;;;;;;7.63;1.33;;;20.50;59.40;;;;;;4992522;28;20046;-43
2023/09/23 12:00:28;;;;;;;1.92;1.60;;;20.50;59.00;;;;;;4991938;28;20042;-44
2023/09/23 12:02:55;;;;;;;1.63;1.02;;;20.40;59.10;;;;;;4990269;28;20141;-47
2023/09/23 12:05:28;;;;;;;1.38;1.00;;;20.40;58.70;;;;;;4990559;28;20407;-46
2023/09/23 12:07:58;;;;;;;2.33;1.33;;;20.30;58.90;;;;;;4989281;28;20050;-44
2023/09/23 12:10:30;;;;;;;3.42;1.67;;;20.20;59.00;;;;;;4988842;28;20046;-43
2023/09/23 12:13:02;;;;;;;2.35;1.00;;;20.10;58.90;;;;;;4986754;28;20829;-47
2023/09/23 12:15:34;;;;;;;3.15;1.42;;;20.00;60.10;;;;;;4986349;28;20034;-43
2023/09/23 12:18:01;;;;;;;2.17;0.82;;;20.00;60.50;;;;;;4988375;28;20046;-44
2023/09/23 12:20:28;;;;;;;1.92;1.58;;;20.00;60.10;;;;;;4989641;28;20571;-44
2023/09/23 12:22:58;;;;;;;2.67;1.02;;;20.00;60.40;;;;;;4989591;28;20073;-43
2023/09/23 12:25:25;;;;;;;1.83;0.70;;;20.00;59.20;;;;;;4984035;28;20077;-47
2023/09/23 12:27:52;;;;;;;2.20;1.58;;;20.10;59.10;;;;;;4989028;28;20489;-44
2023/09/23 12:30:19;;;;;;;1.90;0.82;;;20.10;59.40;;;;;;4979002;28;20147;-45
2023/09/23 12:32:46;;;;;;;2.70;0.90;;;20.10;60.10;;;;;;4982069;28;20263;-47
2023/09/23 12:35:12;;;;;;;2.67;1.00;;;20.20;59.70;;;;;;4988472;28;20038;-47
2023/09/23 12:37:40;;;;;;;2.30;1.25;;;20.20;59.50;;;;;;4984541;28;20056;-48
2023/09/23 12:40:07;;;;;;;1.13;0.88;;;20.30;59.30;;;;;;4986223;28;20120;-45
2023/09/23 12:42:34;;;;;;;6.53;1.02;;;20.40;59.00;;;;;;4981208;28;20051;-46
2023/09/23 12:45:00;;;;;;;1.33;1.20;;;20.50;59.10;;;;;;4987469;28;20053;-47
2023/09/23 12:47:31;;;;;;;0.98;0.60;;;20.50;58.60;;;;;;4989019;28;20524;-44
2023/09/23 12:50:18;;;;;;;0.85;0.60;;;20.60;58.60;;;;;;4991387;28;20054;-43
2023/09/23 12:52:45;;;;;;;1.02;0.75;;;20.70;58.70;;;;;;4989067;28;20576;-47
2023/09/23 12:55:12;;;;;;;3.53;1.63;;;20.80;58.00;;;;;;4981864;28;20071;-46
2023/09/23 12:57:38;;;;;;;3.80;0.93;;;20.90;57.80;;;;;;4991178;28;20078;-49